Thursday, November 23, 2017, 7:17 PM EST
Back to Local

KJHW, Jamestown, Chautauqua County/jamestown Airport

Location: Jamestown, NY, United States Lat: 42.15
Local Time: 7:17 PM EST ( 0:17 GMT) Lon: -79.267
Time Zone: US/Eastern Elev: 1722 ft

Show me the last for .
Show Coded

Time T Td Feel RH Dir Speed Gust Alt SLP Vis Weather Sky Remarks
2017-11-23 18:56 31 22 23 68 210° 9 - 29.95 30.03 10 BKN035 BKN042 OVC050 6-hr Min Temp (7pm): 30.0°F
6-hr Max Temp (7pm): 32.0°F
2017-11-23 17:56 31 22 23 68 210° 9 - 29.94 30.02 10 OVC043 None
2017-11-23 16:56 31 22 22 68 190° 10 - 29.93 30.01 10 OVC060 None
2017-11-23 15:56 31 22 23 68 200° 9 - 29.95 30.03 10 OVC090 None
2017-11-23 14:56 31 22 22 68 210° 10 - 29.96 30.03 10 OVC090 None
2017-11-23 13:56 31 23 22 72 210° 10 - 29.98 30.06 10 SCT024 OVC090 None
2017-11-23 13:30 32 25 24 74 190° 10 - 29.99 - 10 SCT022 OVC090 None
2017-11-23 12:56 31 23 21 72 200° 13 - 29.99 30.07 10 BKN022 OVC090 6-hr Min Temp (1pm): 26.1°F
6-hr Max Temp (1pm): 30.9°F
2017-11-23 12:43 30 23 22 74 180° 9 - 30.00 - 10 BKN022 OVC090 None
2017-11-23 12:05 30 25 21 80 230° 10 - 30.02 - 10 FEW025 OVC090 None
2017-11-23 11:56 31 24 23 75 210° 9 - 30.02 30.10 10 FEW019 BKN025 OVC095 None
2017-11-23 10:56 28 22 19 77 210° 10 - 30.05 30.13 10 OVC023 None
2017-11-23 09:56 28 23 18 81 230° 12 - 30.07 30.15 10 BKN021 OVC027 None
2017-11-23 08:56 27 23 17 84 230° 10 - 30.08 30.16 10 OVC020 None
2017-11-23 07:56 26 24 19 92 160° 6 - 30.07 30.15 10 FEW014 OVC020 None
2017-11-23 06:56 26 22 21 84 190° 5 - 30.07 30.15 10 OVC020 6-hr Min Temp (7am): 24.1°F
6-hr Max Temp (7am): 26.1°F
2017-11-23 05:56 25 21 18 84 190° 6 - 30.08 30.16 10 OVC022 None
2017-11-23 04:56 25 20 19 80 180° 5 - 30.10 30.18 10 OVC022 None
2017-11-23 03:56 25 20 19 80 190° 5 - 30.11 30.19 10 OVC024 None
2017-11-23 02:56 25 20 21 80 150° 3 - 30.13 30.21 10 OVC026 None
2017-11-23 01:56 24 19 - 80 - Calm - 30.12 30.21 10 OVC026 None
2017-11-23 00:56 24 19 20 80 20° 3 - 30.13 30.21 10 OVC022 6-hr Precip Total (1am): 0.00"
6-hr Min Temp (1am): 24.1°F
6-hr Max Temp (1am): 27.0°F
2017-11-22 23:56 25 19 18 77 10° 6 - 30.15 30.22 10 OVC022 24-hr Min Temp (12am): 25.0°F
24-hr Max Temp (12am): 39.9°F
2017-11-22 22:56 25 20 18 80 360° 6 - 30.14 30.22 10 OVC024 None
2017-11-22 21:56 26 21 18 80 10° 7 - 30.15 30.23 10 OVC023 6-hr Precip Total (10pm): 0.00"
2017-11-22 20:56 27 22 18 80 350° 9 - 30.16 30.23 10 OVC026 1-hr Precip Total: Trace
2017-11-22 19:56 27 21 19 77 330° 7 - 30.17 30.24 9 -SN OVC024 1-hr Precip Total: Trace
2017-11-22 19:42 27 21 17 79 330° 9 - 30.18 - 9 -SN BKN024 OVC032 1-hr Precip Total: Trace

Support USWX by starting your Amazon purchase here.